sensor_id;sensor_type;location;lat;lon;timestamp;temperature;humidity
43043;DHT22;28667;50.758;6.096;2024-03-07T00:00:34;3.10;99.90
43043;DHT22;28667;50.758;6.096;2024-03-07T00:03:00;3.00;99.90
43043;DHT22;28667;50.758;6.096;2024-03-07T00:05:26;3.00;99.90
43043;DHT22;28667;50.758;6.096;2024-03-07T00:07:52;3.10;99.90
43043;DHT22;28667;50.758;6.096;2024-03-07T00:10:18;3.10;99.90
43043;DHT22;28667;50.758;6.096;2024-03-07T00:12:46;3.00;99.90
43043;DHT22;28667;50.758;6.096;2024-03-07T00:15:14;3.00;99.90
43043;DHT22;28667;50.758;6.096;2024-03-07T00:17:41;3.00;99.90
43043;DHT22;28667;50.758;6.096;2024-03-07T00:20:07;2.90;99.90
43043;DHT22;28667;50.758;6.096;2024-03-07T00:22:44;3.00;99.90
43043;DHT22;28667;50.758;6.096;2024-03-07T00:25:10;2.90;99.90
43043;DHT22;28667;50.758;6.096;2024-03-07T00:27:38;2.90;99.90
43043;DHT22;28667;50.758;6.096;2024-03-07T00:30:05;2.90;99.90
43043;DHT22;28667;50.758;6.096;2024-03-07T00:32:31;2.90;99.90
43043;DHT22;28667;50.758;6.096;2024-03-07T00:35:01;2.90;99.90
43043;DHT22;28667;50.758;6.096;2024-03-07T00:37:29;2.90;99.90
43043;DHT22;28667;50.758;6.096;2024-03-07T00:39:56;2.90;99.90
43043;DHT22;28667;50.758;6.096;2024-03-07T00:42:22;2.90;99.90
43043;DHT22;28667;50.758;6.096;2024-03-07T00:44:48;2.90;99.90
43043;DHT22;28667;50.758;6.096;2024-03-07T00:47:15;2.90;99.90
43043;DHT22;28667;50.758;6.096;2024-03-07T00:49:44;2.80;99.90
43043;DHT22;28667;50.758;6.096;2024-03-07T00:52:11;2.80;99.90
43043;DHT22;28667;50.758;6.096;2024-03-07T00:54:36;2.80;99.90
43043;DHT22;28667;50.758;6.096;2024-03-07T00:57:02;2.80;99.90
43043;DHT22;28667;50.758;6.096;2024-03-07T00:59:28;2.70;99.90
43043;DHT22;28667;50.758;6.096;2024-03-07T01:01:53;2.70;99.90
43043;DHT22;28667;50.758;6.096;2024-03-07T01:04:19;2.70;99.90
43043;DHT22;28667;50.758;6.096;2024-03-07T01:06:45;2.70;99.90
43043;DHT22;28667;50.758;6.096;2024-03-07T01:09:11;2.70;99.90
43043;DHT22;28667;50.758;6.096;2024-03-07T01:11:44;2.60;99.90
43043;DHT22;28667;50.758;6.096;2024-03-07T01:14:11;2.60;99.90
43043;DHT22;28667;50.758;6.096;2024-03-07T01:16:37;2.60;99.90
43043;DHT22;28667;50.758;6.096;2024-03-07T01:19:03;2.50;99.90
43043;DHT22;28667;50.758;6.096;2024-03-07T01:21:32;2.50;99.90
43043;DHT22;28667;50.758;6.096;2024-03-07T01:23:59;2.50;99.90
43043;DHT22;28667;50.758;6.096;2024-03-07T01:26:27;2.40;99.90
43043;DHT22;28667;50.758;6.096;2024-03-07T01:28:54;2.40;99.90
43043;DHT22;28667;50.758;6.096;2024-03-07T01:31:21;2.40;99.90
43043;DHT22;28667;50.758;6.096;2024-03-07T01:33:47;2.40;99.90
43043;DHT22;28667;50.758;6.096;2024-03-07T01:36:13;2.40;99.90
43043;DHT22;28667;50.758;6.096;2024-03-07T01:38:39;2.30;99.90
43043;DHT22;28667;50.758;6.096;2024-03-07T01:41:04;2.40;99.90
43043;DHT22;28667;50.758;6.096;2024-03-07T01:43:30;2.30;99.90
43043;DHT22;28667;50.758;6.096;2024-03-07T01:45:57;2.30;99.90
43043;DHT22;28667;50.758;6.096;2024-03-07T01:48:29;2.30;99.90
43043;DHT22;28667;50.758;6.096;2024-03-07T01:50:58;2.30;99.90
43043;DHT22;28667;50.758;6.096;2024-03-07T01:53:26;2.30;99.90
43043;DHT22;28667;50.758;6.096;2024-03-07T01:55:52;2.30;99.90
43043;DHT22;28667;50.758;6.096;2024-03-07T01:58:20;2.30;99.90
43043;DHT22;28667;50.758;6.096;2024-03-07T02:00:46;2.20;99.90
43043;DHT22;28667;50.758;6.096;2024-03-07T02:03:16;2.20;99.90
43043;DHT22;28667;50.758;6.096;2024-03-07T02:05:42;2.20;99.90
43043;DHT22;28667;50.758;6.096;2024-03-07T02:08:08;2.10;99.90
43043;DHT22;28667;50.758;6.096;2024-03-07T02:10:34;2.10;99.90
43043;DHT22;28667;50.758;6.096;2024-03-07T02:12:59;2.20;99.90
43043;DHT22;28667;50.758;6.096;2024-03-07T02:15:26;2.20;99.90
43043;DHT22;28667;50.758;6.096;2024-03-07T02:17:53;2.20;99.90
43043;DHT22;28667;50.758;6.096;2024-03-07T02:20:19;2.20;99.90
43043;DHT22;28667;50.758;6.096;2024-03-07T02:22:44;2.20;99.90
43043;DHT22;28667;50.758;6.096;2024-03-07T02:25:10;2.10;99.90
43043;DHT22;28667;50.758;6.096;2024-03-07T02:27:37;2.10;99.90
43043;DHT22;28667;50.758;6.096;2024-03-07T02:30:03;2.00;99.90
43043;DHT22;28667;50.758;6.096;2024-03-07T02:32:29;2.00;99.90
43043;DHT22;28667;50.758;6.096;2024-03-07T02:34:54;2.00;99.90
43043;DHT22;28667;50.758;6.096;2024-03-07T02:37:20;1.90;99.90
43043;DHT22;28667;50.758;6.096;2024-03-07T02:39:46;1.90;99.90
43043;DHT22;28667;50.758;6.096;2024-03-07T02:42:12;1.90;99.90
43043;DHT22;28667;50.758;6.096;2024-03-07T02:44:37;1.80;99.90
43043;DHT22;28667;50.758;6.096;2024-03-07T02:47:06;1.80;99.90
43043;DHT22;28667;50.758;6.096;2024-03-07T02:49:32;1.80;99.90
43043;DHT22;28667;50.758;6.096;2024-03-07T02:51:58;1.80;99.90
43043;DHT22;28667;50.758;6.096;2024-03-07T02:54:24;1.80;99.90
43043;DHT22;28667;50.758;6.096;2024-03-07T02:56:49;1.80;99.90
43043;DHT22;28667;50.758;6.096;2024-03-07T02:59:15;1.80;99.90
43043;DHT22;28667;50.758;6.096;2024-03-07T03:01:42;1.70;99.90
43043;DHT22;28667;50.758;6.096;2024-03-07T03:04:08;1.70;99.90
43043;DHT22;28667;50.758;6.096;2024-03-07T03:06:33;1.70;99.90
43043;DHT22;28667;50.758;6.096;2024-03-07T03:08:59;1.70;99.90
43043;DHT22;28667;50.758;6.096;2024-03-07T03:11:25;1.70;99.90
43043;DHT22;28667;50.758;6.096;2024-03-07T03:13:53;1.70;99.90
43043;DHT22;28667;50.758;6.096;2024-03-07T03:16:18;1.60;99.90
43043;DHT22;28667;50.758;6.096;2024-03-07T03:18:44;1.60;99.90
43043;DHT22;28667;50.758;6.096;2024-03-07T03:21:10;1.60;99.90
43043;DHT22;28667;50.758;6.096;2024-03-07T03:23:35;1.50;99.90
43043;DHT22;28667;50.758;6.096;2024-03-07T03:26:01;1.50;99.90
43043;DHT22;28667;50.758;6.096;2024-03-07T03:28:27;1.50;99.90
43043;DHT22;28667;50.758;6.096;2024-03-07T03:30:53;1.50;99.90
43043;DHT22;28667;50.758;6.096;2024-03-07T03:33:19;1.50;99.90
43043;DHT22;28667;50.758;6.096;2024-03-07T03:35:46;1.50;99.90
43043;DHT22;28667;50.758;6.096;2024-03-07T03:38:12;1.50;99.90
43043;DHT22;28667;50.758;6.096;2024-03-07T03:40:38;1.50;99.90
43043;DHT22;28667;50.758;6.096;2024-03-07T03:43:04;1.50;99.90
43043;DHT22;28667;50.758;6.096;2024-03-07T03:45:30;1.50;99.90
43043;DHT22;28667;50.758;6.096;2024-03-07T03:47:57;1.50;99.90
43043;DHT22;28667;50.758;6.096;2024-03-07T03:50:23;1.50;99.90
43043;DHT22;28667;50.758;6.096;2024-03-07T03:52:49;1.50;99.90
43043;DHT22;28667;50.758;6.096;2024-03-07T03:55:15;1.50;99.90
43043;DHT22;28667;50.758;6.096;2024-03-07T03:57:42;1.40;99.90
43043;DHT22;28667;50.758;6.096;2024-03-07T04:00:09;1.40;99.90
43043;DHT22;28667;50.758;6.096;2024-03-07T04:02:42;1.40;99.90
43043;DHT22;28667;50.758;6.096;2024-03-07T04:05:10;1.40;99.90
43043;DHT22;28667;50.758;6.096;2024-03-07T04:07:37;1.40;99.90
43043;DHT22;28667;50.758;6.096;2024-03-07T04:10:03;1.40;99.90
43043;DHT22;28667;50.758;6.096;2024-03-07T04:12:29;1.40;99.90
43043;DHT22;28667;50.758;6.096;2024-03-07T04:14:55;1.30;99.90
43043;DHT22;28667;50.758;6.096;2024-03-07T04:17:21;1.30;99.90
43043;DHT22;28667;50.758;6.096;2024-03-07T04:19:47;1.30;99.90
43043;DHT22;28667;50.758;6.096;2024-03-07T04:22:13;1.30;99.90
43043;DHT22;28667;50.758;6.096;2024-03-07T04:24:39;1.30;99.90
43043;DHT22;28667;50.758;6.096;2024-03-07T04:27:06;1.30;99.90
43043;DHT22;28667;50.758;6.096;2024-03-07T04:29:35;1.20;99.90
43043;DHT22;28667;50.758;6.096;2024-03-07T04:32:01;1.20;99.90
43043;DHT22;28667;50.758;6.096;2024-03-07T04:34:28;1.20;99.90
43043;DHT22;28667;50.758;6.096;2024-03-07T04:36:57;1.20;99.90
43043;DHT22;28667;50.758;6.096;2024-03-07T04:39:25;1.20;99.90
43043;DHT22;28667;50.758;6.096;2024-03-07T04:42:02;1.20;99.90
43043;DHT22;28667;50.758;6.096;2024-03-07T04:44:31;1.10;99.90
43043;DHT22;28667;50.758;6.096;2024-03-07T04:46:58;1.20;99.90
43043;DHT22;28667;50.758;6.096;2024-03-07T04:49:27;1.10;99.90
43043;DHT22;28667;50.758;6.096;2024-03-07T04:51:55;1.10;99.90
43043;DHT22;28667;50.758;6.096;2024-03-07T04:54:21;1.10;99.90
43043;DHT22;28667;50.758;6.096;2024-03-07T04:56:48;1.10;99.90
43043;DHT22;28667;50.758;6.096;2024-03-07T04:59:15;1.10;99.90
43043;DHT22;28667;50.758;6.096;2024-03-07T05:01:42;1.10;99.90
43043;DHT22;28667;50.758;6.096;2024-03-07T05:04:08;1.10;99.90
43043;DHT22;28667;50.758;6.096;2024-03-07T05:06:34;1.00;99.90
43043;DHT22;28667;50.758;6.096;2024-03-07T05:09:01;1.00;99.90
43043;DHT22;28667;50.758;6.096;2024-03-07T05:11:29;1.00;99.90
43043;DHT22;28667;50.758;6.096;2024-03-07T05:13:55;1.00;99.90
43043;DHT22;28667;50.758;6.096;2024-03-07T05:16:20;1.00;99.90
43043;DHT22;28667;50.758;6.096;2024-03-07T05:18:46;1.00;99.90
43043;DHT22;28667;50.758;6.096;2024-03-07T05:21:12;1.00;99.90
43043;DHT22;28667;50.758;6.096;2024-03-07T05:23:56;1.00;99.90
43043;DHT22;28667;50.758;6.096;2024-03-07T05:26:23;0.90;99.90
43043;DHT22;28667;50.758;6.096;2024-03-07T05:28:49;1.00;99.90
43043;DHT22;28667;50.758;6.096;2024-03-07T05:31:14;0.90;99.90
43043;DHT22;28667;50.758;6.096;2024-03-07T05:33:40;0.90;99.90
43043;DHT22;28667;50.758;6.096;2024-03-07T05:36:07;0.90;99.90
43043;DHT22;28667;50.758;6.096;2024-03-07T05:38:44;0.80;99.90
43043;DHT22;28667;50.758;6.096;2024-03-07T05:41:13;0.80;99.90
43043;DHT22;28667;50.758;6.096;2024-03-07T05:43:39;0.80;99.90
43043;DHT22;28667;50.758;6.096;2024-03-07T05:46:06;0.80;99.90
43043;DHT22;28667;50.758;6.096;2024-03-07T05:48:35;0.80;99.90
43043;DHT22;28667;50.758;6.096;2024-03-07T05:51:01;0.80;99.90
43043;DHT22;28667;50.758;6.096;2024-03-07T05:53:27;0.80;99.90
43043;DHT22;28667;50.758;6.096;2024-03-07T05:55:53;0.80;99.90
43043;DHT22;28667;50.758;6.096;2024-03-07T05:58:19;0.80;99.90
43043;DHT22;28667;50.758;6.096;2024-03-07T06:00:48;0.80;99.90
43043;DHT22;28667;50.758;6.096;2024-03-07T06:03:19;0.80;99.90
43043;DHT22;28667;50.758;6.096;2024-03-07T06:05:48;0.80;99.90
43043;DHT22;28667;50.758;6.096;2024-03-07T06:08:18;0.70;99.90
43043;DHT22;28667;50.758;6.096;2024-03-07T06:10:45;0.70;99.90
43043;DHT22;28667;50.758;6.096;2024-03-07T06:13:13;0.70;99.90
43043;DHT22;28667;50.758;6.096;2024-03-07T06:15:40;0.70;99.90
43043;DHT22;28667;50.758;6.096;2024-03-07T06:18:06;0.70;99.90
43043;DHT22;28667;50.758;6.096;2024-03-07T06:20:36;0.70;99.90
43043;DHT22;28667;50.758;6.096;2024-03-07T06:23:03;0.70;99.90
43043;DHT22;28667;50.758;6.096;2024-03-07T06:25:34;0.70;99.90
43043;DHT22;28667;50.758;6.096;2024-03-07T06:28:06;0.70;99.90
43043;DHT22;28667;50.758;6.096;2024-03-07T06:30:45;0.70;99.90
43043;DHT22;28667;50.758;6.096;2024-03-07T06:33:12;0.70;99.90
43043;DHT22;28667;50.758;6.096;2024-03-07T06:35:39;0.80;99.90
43043;DHT22;28667;50.758;6.096;2024-03-07T06:38:09;0.80;99.90
43043;DHT22;28667;50.758;6.096;2024-03-07T06:40:38;0.80;99.90
43043;DHT22;28667;50.758;6.096;2024-03-07T06:43:10;0.80;99.90
43043;DHT22;28667;50.758;6.096;2024-03-07T06:45:37;0.80;99.90
43043;DHT22;28667;50.758;6.096;2024-03-07T06:48:05;0.90;99.90
43043;DHT22;28667;50.758;6.096;2024-03-07T06:50:36;0.90;99.90
43043;DHT22;28667;50.758;6.096;2024-03-07T06:53:06;0.90;99.90
43043;DHT22;28667;50.758;6.096;2024-03-07T06:55:32;0.90;99.90
43043;DHT22;28667;50.758;6.096;2024-03-07T06:58:01;1.00;99.90
43043;DHT22;28667;50.758;6.096;2024-03-07T07:00:30;1.00;99.90
43043;DHT22;28667;50.758;6.096;2024-03-07T07:02:57;1.10;99.90
43043;DHT22;28667;50.758;6.096;2024-03-07T07:05:23;1.10;99.90
43043;DHT22;28667;50.758;6.096;2024-03-07T07:07:49;1.20;99.90
43043;DHT22;28667;50.758;6.096;2024-03-07T07:10:15;1.30;99.90
43043;DHT22;28667;50.758;6.096;2024-03-07T07:12:45;1.30;99.90
43043;DHT22;28667;50.758;6.096;2024-03-07T07:15:11;1.40;99.90
43043;DHT22;28667;50.758;6.096;2024-03-07T07:17:38;1.50;99.90
43043;DHT22;28667;50.758;6.096;2024-03-07T07:20:04;1.50;99.90
43043;DHT22;28667;50.758;6.096;2024-03-07T07:22:37;1.60;99.90
43043;DHT22;28667;50.758;6.096;2024-03-07T07:25:04;1.70;99.90
43043;DHT22;28667;50.758;6.096;2024-03-07T07:27:33;1.80;99.90
43043;DHT22;28667;50.758;6.096;2024-03-07T07:29:59;1.90;99.90
43043;DHT22;28667;50.758;6.096;2024-03-07T07:32:25;2.00;99.90
43043;DHT22;28667;50.758;6.096;2024-03-07T07:34:51;2.10;99.90
43043;DHT22;28667;50.758;6.096;2024-03-07T07:37:17;2.20;99.90
43043;DHT22;28667;50.758;6.096;2024-03-07T07:39:42;2.30;99.90
43043;DHT22;28667;50.758;6.096;2024-03-07T07:42:08;2.40;99.90
43043;DHT22;28667;50.758;6.096;2024-03-07T07:44:35;2.50;99.90
43043;DHT22;28667;50.758;6.096;2024-03-07T07:47:01;2.60;99.90
43043;DHT22;28667;50.758;6.096;2024-03-07T07:49:27;2.60;99.90
43043;DHT22;28667;50.758;6.096;2024-03-07T07:51:53;2.70;99.90
43043;DHT22;28667;50.758;6.096;2024-03-07T07:54:19;2.80;99.90
43043;DHT22;28667;50.758;6.096;2024-03-07T07:56:46;2.90;99.90
43043;DHT22;28667;50.758;6.096;2024-03-07T07:59:13;3.00;99.90
43043;DHT22;28667;50.758;6.096;2024-03-07T08:01:39;3.10;99.90
43043;DHT22;28667;50.758;6.096;2024-03-07T08:04:05;3.20;99.90
43043;DHT22;28667;50.758;6.096;2024-03-07T08:06:31;3.30;99.90
43043;DHT22;28667;50.758;6.096;2024-03-07T08:08:56;3.40;99.90
43043;DHT22;28667;50.758;6.096;2024-03-07T08:11:22;3.50;99.90
43043;DHT22;28667;50.758;6.096;2024-03-07T08:13:48;3.60;99.90
43043;DHT22;28667;50.758;6.096;2024-03-07T08:16:16;3.70;99.90
43043;DHT22;28667;50.758;6.096;2024-03-07T08:18:42;3.80;99.90
43043;DHT22;28667;50.758;6.096;2024-03-07T08:21:08;4.00;99.90
43043;DHT22;28667;50.758;6.096;2024-03-07T08:23:37;4.10;99.90
43043;DHT22;28667;50.758;6.096;2024-03-07T08:26:03;4.20;99.90
43043;DHT22;28667;50.758;6.096;2024-03-07T08:28:28;4.50;99.90
43043;DHT22;28667;50.758;6.096;2024-03-07T08:30:54;4.60;99.90
43043;DHT22;28667;50.758;6.096;2024-03-07T08:33:20;4.80;99.90
43043;DHT22;28667;50.758;6.096;2024-03-07T08:35:47;5.10;99.90
43043;DHT22;28667;50.758;6.096;2024-03-07T08:38:13;5.30;99.90
43043;DHT22;28667;50.758;6.096;2024-03-07T08:40:39;5.60;99.90
43043;DHT22;28667;50.758;6.096;2024-03-07T08:43:05;5.90;99.90
43043;DHT22;28667;50.758;6.096;2024-03-07T08:45:32;6.30;99.90
43043;DHT22;28667;50.758;6.096;2024-03-07T08:47:58;6.60;99.90
43043;DHT22;28667;50.758;6.096;2024-03-07T08:50:25;7.10;99.90
43043;DHT22;28667;50.758;6.096;2024-03-07T08:52:51;7.40;99.90
43043;DHT22;28667;50.758;6.096;2024-03-07T08:55:23;7.80;99.90
43043;DHT22;28667;50.758;6.096;2024-03-07T08:57:48;8.10;99.90
43043;DHT22;28667;50.758;6.096;2024-03-07T09:00:16;8.40;99.90
43043;DHT22;28667;50.758;6.096;2024-03-07T09:02:56;8.60;99.90
43043;DHT22;28667;50.758;6.096;2024-03-07T09:05:26;8.80;99.90
43043;DHT22;28667;50.758;6.096;2024-03-07T09:07:53;9.00;99.90
43043;DHT22;28667;50.758;6.096;2024-03-07T09:10:20;9.10;99.90
43043;DHT22;28667;50.758;6.096;2024-03-07T09:12:47;9.20;99.90
43043;DHT22;28667;50.758;6.096;2024-03-07T09:15:16;9.30;99.90
43043;DHT22;28667;50.758;6.096;2024-03-07T09:17:46;9.30;99.90
43043;DHT22;28667;50.758;6.096;2024-03-07T09:20:13;9.40;99.90
43043;DHT22;28667;50.758;6.096;2024-03-07T09:22:45;9.40;99.90
43043;DHT22;28667;50.758;6.096;2024-03-07T09:25:11;9.40;99.90
43043;DHT22;28667;50.758;6.096;2024-03-07T09:27:38;9.30;99.90
43043;DHT22;28667;50.758;6.096;2024-03-07T09:30:07;9.10;99.90
43043;DHT22;28667;50.758;6.096;2024-03-07T09:32:41;9.00;99.90
43043;DHT22;28667;50.758;6.096;2024-03-07T09:35:10;8.80;99.90
43043;DHT22;28667;50.758;6.096;2024-03-07T09:37:43;8.60;99.90
43043;DHT22;28667;50.758;6.096;2024-03-07T09:40:10;8.60;99.90
43043;DHT22;28667;50.758;6.096;2024-03-07T09:42:43;8.70;99.90
43043;DHT22;28667;50.758;6.096;2024-03-07T09:45:14;8.70;99.90
43043;DHT22;28667;50.758;6.096;2024-03-07T09:47:41;8.70;99.90
43043;DHT22;28667;50.758;6.096;2024-03-07T09:50:08;8.80;99.90
43043;DHT22;28667;50.758;6.096;2024-03-07T09:52:34;8.80;99.90
43043;DHT22;28667;50.758;6.096;2024-03-07T09:55:01;9.00;99.90
43043;DHT22;28667;50.758;6.096;2024-03-07T09:57:29;9.00;99.90
43043;DHT22;28667;50.758;6.096;2024-03-07T09:59:58;9.10;99.90
43043;DHT22;28667;50.758;6.096;2024-03-07T10:02:25;9.20;99.90
43043;DHT22;28667;50.758;6.096;2024-03-07T10:04:53;9.20;99.90
43043;DHT22;28667;50.758;6.096;2024-03-07T10:07:20;9.30;99.90
43043;DHT22;28667;50.758;6.096;2024-03-07T10:09:47;9.20;99.90
43043;DHT22;28667;50.758;6.096;2024-03-07T10:12:14;9.20;99.90
43043;DHT22;28667;50.758;6.096;2024-03-07T10:14:55;9.10;99.90
43043;DHT22;28667;50.758;6.096;2024-03-07T10:17:24;9.20;99.90
43043;DHT22;28667;50.758;6.096;2024-03-07T10:19:51;9.20;99.90
43043;DHT22;28667;50.758;6.096;2024-03-07T10:22:19;9.20;99.90
43043;DHT22;28667;50.758;6.096;2024-03-07T10:24:53;9.20;99.90
43043;DHT22;28667;50.758;6.096;2024-03-07T10:27:22;9.30;99.90
43043;DHT22;28667;50.758;6.096;2024-03-07T10:29:49;9.30;99.90
43043;DHT22;28667;50.758;6.096;2024-03-07T10:32:22;9.20;99.90
43043;DHT22;28667;50.758;6.096;2024-03-07T10:34:51;9.20;99.90
43043;DHT22;28667;50.758;6.096;2024-03-07T10:37:17;9.30;99.90
43043;DHT22;28667;50.758;6.096;2024-03-07T10:39:49;9.30;99.90
43043;DHT22;28667;50.758;6.096;2024-03-07T10:42:19;9.30;99.90
43043;DHT22;28667;50.758;6.096;2024-03-07T10:44:47;9.30;99.90
43043;DHT22;28667;50.758;6.096;2024-03-07T10:47:18;9.20;99.90
43043;DHT22;28667;50.758;6.096;2024-03-07T10:52:37;8.90;99.90
43043;DHT22;28667;50.758;6.096;2024-03-07T10:57:51;8.70;99.90
43043;DHT22;28667;50.758;6.096;2024-03-07T11:00:21;8.80;99.90
43043;DHT22;28667;50.758;6.096;2024-03-07T11:02:56;8.80;99.90
43043;DHT22;28667;50.758;6.096;2024-03-07T11:05:25;8.70;99.90
43043;DHT22;28667;50.758;6.096;2024-03-07T11:07:51;8.60;99.90
43043;DHT22;28667;50.758;6.096;2024-03-07T11:10:18;8.40;99.90
43043;DHT22;28667;50.758;6.096;2024-03-07T11:12:47;8.40;99.90
43043;DHT22;28667;50.758;6.096;2024-03-07T11:15:15;8.20;99.90
43043;DHT22;28667;50.758;6.096;2024-03-07T11:17:46;8.10;99.90
43043;DHT22;28667;50.758;6.096;2024-03-07T11:20:26;8.30;99.90
43043;DHT22;28667;50.758;6.096;2024-03-07T11:22:53;8.70;99.90
43043;DHT22;28667;50.758;6.096;2024-03-07T11:25:21;9.30;99.90
43043;DHT22;28667;50.758;6.096;2024-03-07T11:27:58;9.80;99.90
43043;DHT22;28667;50.758;6.096;2024-03-07T11:30:24;10.20;99.90
43043;DHT22;28667;50.758;6.096;2024-03-07T11:32:51;10.20;99.90
43043;DHT22;28667;50.758;6.096;2024-03-07T11:35:21;10.40;99.70
43043;DHT22;28667;50.758;6.096;2024-03-07T11:37:58;10.80;99.30
43043;DHT22;28667;50.758;6.096;2024-03-07T11:42:52;10.90;97.50
43043;DHT22;28667;50.758;6.096;2024-03-07T11:45:19;10.80;98.40
43043;DHT22;28667;50.758;6.096;2024-03-07T11:47:52;10.80;98.00
43043;DHT22;28667;50.758;6.096;2024-03-07T11:50:28;10.80;98.20
43043;DHT22;28667;50.758;6.096;2024-03-07T11:52:55;10.90;97.90
43043;DHT22;28667;50.758;6.096;2024-03-07T11:55:23;11.00;96.60
43043;DHT22;28667;50.758;6.096;2024-03-07T11:57:50;11.10;96.80
43043;DHT22;28667;50.758;6.096;2024-03-07T12:00:19;11.20;97.00
43043;DHT22;28667;50.758;6.096;2024-03-07T12:02:45;11.40;97.60
43043;DHT22;28667;50.758;6.096;2024-03-07T12:05:12;11.60;96.70
43043;DHT22;28667;50.758;6.096;2024-03-07T12:07:41;11.60;95.30
43043;DHT22;28667;50.758;6.096;2024-03-07T12:10:09;11.60;95.70
43043;DHT22;28667;50.758;6.096;2024-03-07T12:12:35;11.70;96.10
43043;DHT22;28667;50.758;6.096;2024-03-07T12:15:05;11.80;95.20
43043;DHT22;28667;50.758;6.096;2024-03-07T12:17:37;11.70;95.40
43043;DHT22;28667;50.758;6.096;2024-03-07T12:20:05;11.80;95.00
43043;DHT22;28667;50.758;6.096;2024-03-07T12:22:50;12.00;95.10
43043;DHT22;28667;50.758;6.096;2024-03-07T12:25:19;12.10;95.10
43043;DHT22;28667;50.758;6.096;2024-03-07T12:27:58;12.20;94.50
43043;DHT22;28667;50.758;6.096;2024-03-07T12:30:26;12.40;93.80
43043;DHT22;28667;50.758;6.096;2024-03-07T12:32:53;12.50;94.40
43043;DHT22;28667;50.758;6.096;2024-03-07T12:35:18;12.50;94.10
43043;DHT22;28667;50.758;6.096;2024-03-07T12:37:45;12.50;93.00
43043;DHT22;28667;50.758;6.096;2024-03-07T12:40:12;12.40;93.40
43043;DHT22;28667;50.758;6.096;2024-03-07T12:42:51;12.20;93.20
43043;DHT22;28667;50.758;6.096;2024-03-07T12:45:20;12.10;93.60
43043;DHT22;28667;50.758;6.096;2024-03-07T12:47:47;12.10;93.30
43043;DHT22;28667;50.758;6.096;2024-03-07T12:50:17;12.10;94.20
43043;DHT22;28667;50.758;6.096;2024-03-07T12:52:49;12.10;93.50
43043;DHT22;28667;50.758;6.096;2024-03-07T12:55:18;11.90;94.30
43043;DHT22;28667;50.758;6.096;2024-03-07T12:57:50;11.50;94.10
43043;DHT22;28667;50.758;6.096;2024-03-07T13:00:18;11.30;94.80
43043;DHT22;28667;50.758;6.096;2024-03-07T13:02:48;11.10;94.90
43043;DHT22;28667;50.758;6.096;2024-03-07T13:05:14;10.80;95.00
43043;DHT22;28667;50.758;6.096;2024-03-07T13:07:51;10.70;95.40
43043;DHT22;28667;50.758;6.096;2024-03-07T13:10:17;10.60;95.80
43043;DHT22;28667;50.758;6.096;2024-03-07T13:12:45;10.50;95.20
43043;DHT22;28667;50.758;6.096;2024-03-07T13:15:13;10.30;95.90
43043;DHT22;28667;50.758;6.096;2024-03-07T13:17:39;10.10;96.00
43043;DHT22;28667;50.758;6.096;2024-03-07T13:20:05;10.00;97.20
43043;DHT22;28667;50.758;6.096;2024-03-07T13:22:44;10.10;96.80
43043;DHT22;28667;50.758;6.096;2024-03-07T13:25:23;10.10;96.90
43043;DHT22;28667;50.758;6.096;2024-03-07T13:28:14;10.00;96.80
43043;DHT22;28667;50.758;6.096;2024-03-07T13:30:42;9.90;96.80
43043;DHT22;28667;50.758;6.096;2024-03-07T13:33:09;9.80;96.90
43043;DHT22;28667;50.758;6.096;2024-03-07T13:35:39;9.70;97.00
43043;DHT22;28667;50.758;6.096;2024-03-07T13:38:05;9.60;97.50
43043;DHT22;28667;50.758;6.096;2024-03-07T13:40:32;9.50;97.60
43043;DHT22;28667;50.758;6.096;2024-03-07T13:43:00;9.50;98.10
43043;DHT22;28667;50.758;6.096;2024-03-07T13:45:28;9.50;98.10
43043;DHT22;28667;50.758;6.096;2024-03-07T13:47:57;9.60;97.50
43043;DHT22;28667;50.758;6.096;2024-03-07T13:50:26;9.50;97.40
43043;DHT22;28667;50.758;6.096;2024-03-07T13:52:55;9.40;97.70
43043;DHT22;28667;50.758;6.096;2024-03-07T14:18:54;9.40;98.90
43043;DHT22;28667;50.758;6.096;2024-03-07T14:27:27;9.30;98.60
43043;DHT22;28667;50.758;6.096;2024-03-07T14:32:56;9.30;98.20
43043;DHT22;28667;50.758;6.096;2024-03-07T14:35:26;9.30;98.50
43043;DHT22;28667;50.758;6.096;2024-03-07T14:38:22;9.30;98.70
43043;DHT22;28667;50.758;6.096;2024-03-07T14:40:50;9.30;98.30
43043;DHT22;28667;50.758;6.096;2024-03-07T14:43:17;9.10;98.50
43043;DHT22;28667;50.758;6.096;2024-03-07T14:45:43;9.10;98.80
43043;DHT22;28667;50.758;6.096;2024-03-07T14:48:10;9.00;98.90
43043;DHT22;28667;50.758;6.096;2024-03-07T14:50:39;9.00;99.20
43043;DHT22;28667;50.758;6.096;2024-03-07T14:53:06;9.10;98.90
43043;DHT22;28667;50.758;6.096;2024-03-07T14:55:33;9.10;99.40
43043;DHT22;28667;50.758;6.096;2024-03-07T14:57:59;9.00;99.00
43043;DHT22;28667;50.758;6.096;2024-03-07T15:00:26;9.10;98.60
43043;DHT22;28667;50.758;6.096;2024-03-07T15:02:55;9.10;98.20
43043;DHT22;28667;50.758;6.096;2024-03-07T15:05:25;9.10;98.90
43043;DHT22;28667;50.758;6.096;2024-03-07T15:07:52;9.10;98.90
43043;DHT22;28667;50.758;6.096;2024-03-07T15:10:33;9.10;98.90
43043;DHT22;28667;50.758;6.096;2024-03-07T15:13:00;9.10;98.70
43043;DHT22;28667;50.758;6.096;2024-03-07T15:15:25;9.10;98.30
43043;DHT22;28667;50.758;6.096;2024-03-07T15:17:57;9.10;98.60
43043;DHT22;28667;50.758;6.096;2024-03-07T15:20:23;9.10;99.10
43043;DHT22;28667;50.758;6.096;2024-03-07T15:22:54;9.20;99.20
43043;DHT22;28667;50.758;6.096;2024-03-07T15:25:21;9.20;98.80
43043;DHT22;28667;50.758;6.096;2024-03-07T15:27:51;9.20;99.20
43043;DHT22;28667;50.758;6.096;2024-03-07T15:30:18;9.20;99.30
43043;DHT22;28667;50.758;6.096;2024-03-07T15:32:45;9.20;99.00
43043;DHT22;28667;50.758;6.096;2024-03-07T15:35:12;9.20;99.50
43043;DHT22;28667;50.758;6.096;2024-03-07T15:37:43;9.10;99.70
43043;DHT22;28667;50.758;6.096;2024-03-07T15:40:10;9.10;99.40
43043;DHT22;28667;50.758;6.096;2024-03-07T15:42:43;9.00;99.20
43043;DHT22;28667;50.758;6.096;2024-03-07T15:45:15;9.00;99.80
43043;DHT22;28667;50.758;6.096;2024-03-07T15:47:58;9.00;99.90
43043;DHT22;28667;50.758;6.096;2024-03-07T15:50:26;8.90;99.90
43043;DHT22;28667;50.758;6.096;2024-03-07T15:52:56;8.90;99.90
43043;DHT22;28667;50.758;6.096;2024-03-07T15:55:23;8.80;99.90
43043;DHT22;28667;50.758;6.096;2024-03-07T15:57:54;8.70;99.90
43043;DHT22;28667;50.758;6.096;2024-03-07T16:00:25;8.70;99.90
43043;DHT22;28667;50.758;6.096;2024-03-07T16:03:04;8.70;99.90
43043;DHT22;28667;50.758;6.096;2024-03-07T16:05:34;8.60;99.90
43043;DHT22;28667;50.758;6.096;2024-03-07T16:08:01;8.60;99.90
43043;DHT22;28667;50.758;6.096;2024-03-07T16:10:28;8.50;99.90
43043;DHT22;28667;50.758;6.096;2024-03-07T16:12:58;8.50;99.90
43043;DHT22;28667;50.758;6.096;2024-03-07T16:15:25;8.40;99.90
43043;DHT22;28667;50.758;6.096;2024-03-07T16:17:55;8.40;99.90
43043;DHT22;28667;50.758;6.096;2024-03-07T16:20:25;8.50;99.90
43043;DHT22;28667;50.758;6.096;2024-03-07T16:22:51;8.50;99.90
43043;DHT22;28667;50.758;6.096;2024-03-07T16:25:17;8.40;99.90
43043;DHT22;28667;50.758;6.096;2024-03-07T16:27:46;8.40;99.90
43043;DHT22;28667;50.758;6.096;2024-03-07T16:30:13;8.30;99.90